Nearby METAR Reports

 

KMHT - Manchester, New Hampshire, USA
Distance from station: W 16mi, 26km
Updated: Wed, 23-Oct-2019 12:53am EDT
Light rain, Mist, Overcast
Light rain, Mist, Overcast
 Wind from NNE
Wind: NNE 3 mph , 6 km/h
Temperature: 54°F , 12°C
Dew Point: 54°F , 12°C
Humidity: 100%
Barometer: 29.87 inHg , 1011.5 hPa
Summary: Light rain, Mist
Clouds: Overcast
Visibility: 2 miles , 3 km
Cloud details: Mostly cloudy 800 ft
Overcast 1500 ft
2019/10/23 04:53 KMHT 230453Z 03003KT 2SM -RA BR BKN008 OVC015 12/12 A2987 RMK AO2 SLP129 P0000 T01220117 401560067
KPSM - Portsmouth/Pease, New Hampshire, USA
Distance from station: ENE 17mi, 27km
Updated: Wed, 23-Oct-2019 12:56am EDT
Rain, Mist, Overcast
Rain, Mist, Overcast
 Wind from ENE
Wind: ENE 5 mph , 7 km/h
Temperature: 54°F , 12°C
Dew Point: 54°F , 12°C
Humidity: 100%
Barometer: 29.89 inHg , 1012.2 hPa
Summary: Rain, Mist
Clouds: Overcast
Visibility: 1 1/2 miles , 2.4 km
Cloud details: Mostly cloudy 200 ft
Overcast 1200 ft
2019/10/23 04:56 KPSM 230456Z 06004KT 1 1/2SM RA BR BKN002 OVC012 12/12 A2989 RMK AO2A SLP124 P0010 T01230121 401430053
 
KASH - Nashua/Boire Fld, New Hampshire, USA
Distance from station: WSW 24mi, 38km
Updated: Wed, 23-Oct-2019 12:56am EDT
Light rain, Mist, Overcast
Light rain, Mist, Overcast
 Wind from calm
Wind: Calm
Temperature: 54°F , 12°C
Dew Point: 54°F , 12°C
Humidity: 100%
Barometer: 29.88 inHg , 1011.9 hPa
Summary: Light rain, Mist
Clouds: Overcast
Visibility: 4 miles , 6 km
Cloud details: Overcast 400 ft
2019/10/23 04:56 KASH 230456Z AUTO 00000KT 4SM -RA BR OVC004 12/12 A2988 RMK AO2 SLP123 T01220122 401500044 PNO $
KDAW - Rochester, New Hampshire, USA
Distance from station: NNE 24mi, 39km
Updated: Wed, 23-Oct-2019 1:12am EDT
Light rain, Mist, Overcast
Light rain, Mist, Overcast
 Wind from NE
Wind: NE 5 mph , 7 km/h
Temperature: 54°F , 12°C
Dew Point: 52°F , 11°C
Humidity: 94%
Barometer: 29.90 inHg , 1012.5 hPa
Summary: Light rain, Mist
Clouds: Overcast
Visibility: 2 miles , 3 km
Cloud details: Overcast 400 ft
2019/10/23 05:12 KDAW 230512Z AUTO 04004KT 2SM -RA BR OVC004 12/11 A2990 RMK AO2 P0002 T01170106